createdAt,value
2019-05-01T00:01:13.991Z,53.97
2019-05-01T00:04:00.552Z,38.30
2019-05-01T00:06:43.278Z,30.50
2019-05-01T00:09:14.539Z,49.07
2019-05-01T00:11:43.544Z,70.07
2019-05-01T00:14:12.458Z,54.40
2019-05-01T00:16:41.338Z,59.03
2019-05-01T00:19:10.052Z,45.50
2019-05-01T00:21:38.795Z,55.57
2019-05-01T00:24:07.533Z,62.73
2019-05-01T00:26:36.261Z,47.80
2019-05-01T00:29:05.235Z,41.60
2019-05-01T00:31:33.951Z,69.87
2019-05-01T00:34:02.734Z,40.13
2019-05-01T00:36:31.931Z,33.23
2019-05-01T00:39:00.628Z,31.10
2019-05-01T00:41:29.379Z,30.00
2019-05-01T00:43:58.114Z,27.70
2019-05-01T00:46:26.871Z,27.20
2019-05-01T00:48:55.873Z,26.50
2019-05-01T00:51:24.722Z,27.07
2019-05-01T00:53:53.599Z,27.17
2019-05-01T00:56:28.644Z,25.23
2019-05-01T00:59:21.750Z,25.40
2019-05-01T01:02:09.683Z,24.87
2019-05-01T01:04:38.436Z,21.70
2019-05-01T01:07:07.432Z,22.20
2019-05-01T01:09:36.154Z,23.53
2019-05-01T01:12:04.981Z,23.27
2019-05-01T01:14:33.690Z,23.57
2019-05-01T01:17:02.414Z,24.17
2019-05-01T01:19:31.166Z,23.33
2019-05-01T01:21:59.959Z,23.40
2019-05-01T01:24:28.830Z,23.80
2019-05-01T01:26:57.699Z,23.60
2019-05-01T01:29:26.401Z,23.40
2019-05-01T01:31:55.139Z,23.13
2019-05-01T01:34:23.858Z,22.60
2019-05-01T01:36:52.654Z,23.77
2019-05-01T01:39:21.394Z,23.43
2019-05-01T01:41:50.386Z,22.77
2019-05-01T01:44:26.219Z,22.93
2019-05-01T01:46:56.179Z,22.77
2019-05-01T01:49:24.881Z,20.77
2019-05-01T01:51:53.823Z,21.37
2019-05-01T01:54:22.704Z,21.93
2019-05-01T01:56:51.549Z,22.87
2019-05-01T01:59:21.260Z,23.17
2019-05-01T02:02:15.480Z,22.50
2019-05-01T02:05:06.074Z,21.47
2019-05-01T02:07:35.344Z,20.73
2019-05-01T02:10:05.699Z,22.63
2019-05-01T02:12:35.198Z,23.03
2019-05-01T02:15:04.100Z,22.63
2019-05-01T02:17:32.938Z,22.60
2019-05-01T02:20:01.786Z,22.07
2019-05-01T02:22:30.601Z,22.93
2019-05-01T02:24:59.346Z,22.13
2019-05-01T02:27:46.992Z,23.77
2019-05-01T02:30:17.512Z,21.97
2019-05-01T02:32:47.620Z,22.87
2019-05-01T02:35:17.086Z,23.67
2019-05-01T02:37:48.246Z,24.63
2019-05-01T02:41:06.568Z,24.17
2019-05-01T02:43:37.912Z,23.63
2019-05-01T02:46:08.830Z,24.53
2019-05-01T02:48:52.746Z,24.17
2019-05-01T02:51:30.797Z,24.27
2019-05-01T02:54:12.314Z,22.97
2019-05-01T02:56:52.641Z,22.57
2019-05-01T02:59:25.271Z,23.73
2019-05-01T03:02:08.145Z,23.60
2019-05-01T03:04:40.712Z,23.30
2019-05-01T03:07:17.417Z,21.97
2019-05-01T03:09:53.437Z,22.77
2019-05-01T03:12:28.968Z,22.60
2019-05-01T03:15:03.993Z,21.27
2019-05-01T03:17:42.971Z,22.03
2019-05-01T03:20:32.319Z,22.10
2019-05-01T03:23:36.616Z,22.40
2019-05-01T03:26:10.459Z,22.23
2019-05-01T03:28:46.009Z,20.93
2019-05-01T03:31:18.614Z,22.20
2019-05-01T03:33:57.462Z,21.33
2019-05-01T03:36:34.323Z,22.97
2019-05-01T03:39:11.619Z,21.90
2019-05-01T03:41:40.886Z,22.07
2019-05-01T03:44:19.038Z,23.20
2019-05-01T03:47:06.772Z,22.70
2019-05-01T03:49:47.413Z,23.07
2019-05-01T03:52:25.058Z,22.97
2019-05-01T03:54:57.880Z,23.53
2019-05-01T03:57:26.863Z,23.30
2019-05-01T03:59:55.968Z,23.57
2019-05-01T04:02:39.636Z,24.07
2019-05-01T04:05:13.466Z,24.73
2019-05-01T04:07:42.846Z,23.97
2019-05-01T04:10:12.378Z,24.67
2019-05-01T04:12:52.512Z,25.33
2019-05-01T04:15:29.551Z,24.87
2019-05-01T04:18:38.855Z,24.87
2019-05-01T04:21:29.250Z,26.17
2019-05-01T04:24:38.597Z,24.83
2019-05-01T04:26:58.406Z,24.40
2019-05-01T04:29:36.816Z,26.03
2019-05-01T04:32:50.936Z,24.93
2019-05-01T04:35:36.054Z,24.63
2019-05-01T04:38:13.679Z,25.40
2019-05-01T04:40:54.382Z,25.30
2019-05-01T04:43:43.023Z,26.23
2019-05-01T04:46:27.690Z,25.47
2019-05-01T04:49:12.239Z,25.33
2019-05-01T04:51:57.197Z,25.30
2019-05-01T04:54:26.533Z,25.10
2019-05-01T04:56:59.432Z,24.50
2019-05-01T04:59:28.799Z,25.60
2019-05-01T05:02:07.701Z,25.73
2019-05-01T05:04:36.946Z,25.73
2019-05-01T05:07:11.877Z,25.33
2019-05-01T05:09:45.481Z,26.03
2019-05-01T05:12:39.258Z,25.27
2019-05-01T05:15:22.891Z,25.90
2019-05-01T05:17:58.435Z,24.33
2019-05-01T05:20:28.274Z,25.30
2019-05-01T05:23:11.439Z,25.00
2019-05-01T05:25:46.834Z,23.53
2019-05-01T05:28:31.113Z,24.30
2019-05-01T05:31:22.110Z,23.37
2019-05-01T05:34:02.344Z,24.13
2019-05-01T05:36:41.408Z,23.37
2019-05-01T05:39:31.837Z,23.77
2019-05-01T05:42:12.419Z,24.63
2019-05-01T05:44:56.434Z,24.30
2019-05-01T05:47:25.581Z,24.10
2019-05-01T05:50:03.772Z,24.20
2019-05-01T05:52:44.797Z,25.13
2019-05-01T05:55:31.064Z,23.90
2019-05-01T05:58:25.057Z,26.57
2019-05-01T06:01:15.917Z,25.93
2019-05-01T06:04:11.364Z,26.43
2019-05-01T06:07:05.443Z,25.33
2019-05-01T06:09:49.653Z,25.47
2019-05-01T06:12:49.575Z,24.77
2019-05-01T06:15:29.468Z,26.07
2019-05-01T06:18:39.070Z,26.00
2019-05-01T06:50:17.512Z,29.57
2019-05-01T06:52:46.738Z,30.67
2019-05-01T06:55:15.630Z,34.35
2019-05-01T06:57:45.654Z,31.70
2019-05-01T07:00:17.043Z,30.20
2019-05-01T07:02:47.330Z,29.80
2019-05-01T07:05:16.592Z,29.37
2019-05-01T07:07:48.206Z,28.67
2019-05-01T07:10:29.502Z,27.80
2019-05-01T07:12:48.266Z,27.63
2019-05-01T07:15:17.338Z,27.37
2019-05-01T07:17:47.810Z,28.17
2019-05-01T07:20:39.463Z,26.40
2019-05-01T07:23:08.324Z,26.73
2019-05-01T07:25:39.523Z,26.27
2019-05-01T07:28:08.046Z,26.33
2019-05-01T07:31:05.021Z,25.60
2019-05-01T07:33:33.333Z,26.03
2019-05-01T07:36:02.641Z,25.43
2019-05-01T07:38:33.071Z,26.73
2019-05-01T07:41:03.342Z,26.03
2019-05-01T07:43:59.615Z,26.20
2019-05-01T07:46:54.201Z,26.70
2019-05-01T07:49:29.281Z,27.53
2019-05-01T07:51:58.382Z,28.10
2019-05-01T07:54:27.368Z,28.37
2019-05-01T07:56:58.853Z,28.03
2019-05-01T07:59:28.642Z,28.03
2019-05-01T08:02:04.877Z,27.73
2019-05-01T08:04:36.891Z,28.40
2019-05-01T08:07:04.455Z,27.43
2019-05-01T08:09:33.354Z,27.30
2019-05-01T08:12:02.178Z,27.77
2019-05-01T08:14:30.908Z,26.47
2019-05-01T08:16:59.666Z,27.77
2019-05-01T08:19:47.530Z,27.53
2019-05-01T08:22:19.856Z,27.60
2019-05-01T08:24:48.664Z,26.70
2019-05-01T08:27:30.618Z,26.17
2019-05-01T08:30:19.183Z,26.97
2019-05-01T08:32:52.682Z,26.20
2019-05-01T08:35:23.179Z,27.57
2019-05-01T08:37:53.768Z,26.53
2019-05-01T08:40:22.456Z,27.03
2019-05-01T08:42:51.203Z,26.83
2019-05-01T08:45:51.287Z,27.23
2019-05-01T08:48:30.786Z,27.67
2019-05-01T08:51:00.463Z,26.03
2019-05-01T08:53:29.320Z,26.67
2019-05-01T08:55:58.159Z,27.60
2019-05-01T08:58:26.967Z,25.77
2019-05-01T09:00:55.794Z,26.17
2019-05-01T09:03:24.745Z,27.67
2019-05-01T09:05:57.555Z,27.70
2019-05-01T09:08:27.110Z,27.77
2019-05-01T09:10:59.948Z,26.43
2019-05-01T09:13:25.154Z,26.33
2019-05-01T09:15:53.910Z,27.57
2019-05-01T09:18:22.685Z,26.13
2019-05-01T09:20:53.396Z,27.00
2019-05-01T09:23:22.230Z,27.10
2019-05-01T09:26:14.805Z,27.37
2019-05-01T09:28:42.433Z,27.93
2019-05-01T09:31:13.134Z,27.13
2019-05-01T09:33:42.010Z,27.23
2019-05-01T09:36:10.931Z,27.73
2019-05-01T09:38:39.769Z,27.23
2019-05-01T09:41:09.026Z,28.13
2019-05-01T09:43:38.019Z,27.67
2019-05-01T09:46:06.958Z,28.07
2019-05-01T09:48:36.321Z,27.47
2019-05-01T09:51:33.324Z,27.90
2019-05-01T09:54:09.903Z,28.27
2019-05-01T09:56:38.616Z,27.03
2019-05-01T09:59:07.377Z,28.20
2019-05-01T10:01:36.258Z,28.20
2019-05-01T10:04:05.685Z,26.37
2019-05-01T10:06:34.612Z,26.57
2019-05-01T10:09:04.454Z,28.63
2019-05-01T10:11:35.994Z,27.53
2019-05-01T10:14:04.183Z,26.43
2019-05-01T10:16:33.114Z,27.80
2019-05-01T10:19:01.850Z,27.93
2019-05-01T10:21:30.624Z,31.12
2019-05-01T10:23:59.480Z,27.83
2019-05-01T10:26:29.974Z,29.37
2019-05-01T10:29:16.723Z,28.23
2019-05-01T10:32:05.495Z,27.83
2019-05-01T10:34:48.230Z,25.63
2019-05-01T10:37:17.000Z,27.00
2019-05-01T10:39:50.250Z,27.00
2019-05-01T10:42:16.235Z,27.47
2019-05-01T10:44:44.994Z,25.63
2019-05-01T10:47:13.748Z,26.77
2019-05-01T10:49:42.519Z,24.90
2019-05-01T10:52:14.422Z,26.80
2019-05-01T10:54:41.761Z,25.47
2019-05-01T10:57:12.940Z,26.43
2019-05-01T10:59:41.075Z,26.97
2019-05-01T11:02:11.727Z,24.13
2019-05-01T11:04:40.536Z,23.67
2019-05-01T11:07:09.306Z,23.20
2019-05-01T11:09:38.059Z,23.67
2019-05-01T11:12:07.020Z,24.63
2019-05-01T11:14:35.756Z,25.63
2019-05-01T11:17:04.631Z,23.30
2019-05-01T11:19:33.388Z,24.37
2019-05-01T11:22:02.235Z,25.23
2019-05-01T11:24:30.998Z,24.70
2019-05-01T11:26:59.808Z,24.90
2019-05-01T11:29:28.892Z,24.80
2019-05-01T11:32:12.091Z,24.20
2019-05-01T11:35:02.776Z,20.83
2019-05-01T11:37:49.217Z,20.03
2019-05-01T11:40:23.790Z,21.30
2019-05-01T11:42:52.530Z,20.93
2019-05-01T11:45:21.364Z,20.47
2019-05-01T11:47:50.101Z,21.73
2019-05-01T11:50:18.919Z,21.43
2019-05-01T11:52:47.662Z,21.73
2019-05-01T11:55:16.529Z,21.60
2019-05-01T11:57:45.272Z,21.23
2019-05-01T12:00:16.447Z,21.03
2019-05-01T12:02:45.243Z,20.23
2019-05-01T12:05:14.269Z,20.90
2019-05-01T12:07:42.996Z,20.93
2019-05-01T12:10:15.338Z,20.47
2019-05-01T12:12:44.143Z,20.07
2019-05-01T12:15:13.129Z,19.10
2019-05-01T12:17:48.932Z,21.87
2019-05-01T12:20:19.028Z,22.60
2019-05-01T12:22:51.033Z,21.90
2019-05-01T12:25:18.644Z,23.10
2019-05-01T12:27:47.924Z,22.77
2019-05-01T12:30:17.750Z,22.90
2019-05-01T12:32:46.665Z,22.53
2019-05-01T12:35:15.845Z,24.20
2019-05-01T12:37:45.228Z,24.40
2019-05-01T12:40:19.742Z,22.37
2019-05-01T12:42:48.661Z,22.53
2019-05-01T12:45:18.046Z,23.37
2019-05-01T12:47:57.841Z,24.27
2019-05-01T12:50:26.785Z,22.83
2019-05-01T12:53:10.213Z,21.87
2019-05-01T12:56:16.788Z,21.80
2019-05-01T12:58:46.589Z,22.67
2019-05-01T13:01:15.539Z,22.73
2019-05-01T13:03:44.399Z,22.10
2019-05-01T13:06:14.507Z,22.73
2019-05-01T13:08:43.417Z,23.47
2019-05-01T13:11:12.392Z,21.03
2019-05-01T13:13:41.356Z,22.83
2019-05-01T13:16:10.464Z,22.90
2019-05-01T13:18:39.416Z,21.23
2019-05-01T13:21:08.772Z,22.47
2019-05-01T13:23:37.657Z,22.90
2019-05-01T13:26:17.294Z,22.20
2019-05-01T13:28:55.535Z,22.37
2019-05-01T13:31:58.817Z,21.17
2019-05-01T13:34:27.936Z,21.53
2019-05-01T13:37:03.263Z,21.37
2019-05-01T13:39:27.774Z,20.53
2019-05-01T13:41:57.004Z,20.23
2019-05-01T13:44:25.923Z,20.67
2019-05-01T13:46:54.862Z,20.17
2019-05-01T13:49:23.747Z,19.33
2019-05-01T13:51:52.516Z,19.13
2019-05-01T13:54:21.341Z,17.53
2019-05-01T13:56:50.096Z,18.07
2019-05-01T13:59:18.989Z,18.97
2019-05-01T14:01:47.818Z,20.00
2019-05-01T14:04:17.550Z,19.90
2019-05-01T14:06:46.506Z,19.07
2019-05-01T14:09:17.131Z,18.30
2019-05-01T14:11:46.502Z,17.97
2019-05-01T14:14:15.250Z,14.83
2019-05-01T14:16:44.071Z,16.10
2019-05-01T14:19:13.643Z,16.50
2019-05-01T14:21:51.337Z,16.73
2019-05-01T14:24:39.162Z,17.33
2019-05-01T14:27:08.000Z,16.63
2019-05-01T14:29:36.790Z,15.97
2019-05-01T14:32:05.711Z,15.67
2019-05-01T14:34:34.514Z,16.23
2019-05-01T14:37:03.255Z,16.30
2019-05-01T14:39:31.996Z,15.40
2019-05-01T14:42:00.764Z,15.20
2019-05-01T14:44:36.531Z,15.83
2019-05-01T14:47:00.205Z,16.23
2019-05-01T14:49:28.962Z,17.47
2019-05-01T14:51:58.217Z,19.20
2019-05-01T14:54:27.354Z,17.87
2019-05-01T14:56:56.306Z,15.40
2019-05-01T14:59:25.405Z,15.90
2019-05-01T15:01:54.213Z,17.37
2019-05-01T15:04:23.523Z,24.23
2019-05-01T15:06:52.725Z,17.35
2019-05-01T15:09:21.515Z,16.47
2019-05-01T15:11:50.535Z,16.87
2019-05-01T15:14:31.948Z,17.77
2019-05-01T15:17:17.153Z,15.80
2019-05-01T15:19:50.313Z,15.83
2019-05-01T15:22:19.164Z,15.97
2019-05-01T15:24:48.123Z,15.60
2019-05-01T15:27:17.036Z,17.47
2019-05-01T15:29:46.079Z,17.23
2019-05-01T15:32:14.901Z,17.03
2019-05-01T15:34:43.636Z,17.37
2019-05-01T15:37:12.953Z,17.00
2019-05-01T15:39:47.512Z,17.90
2019-05-01T15:42:47.819Z,16.93
2019-05-01T15:45:16.971Z,16.60
2019-05-01T15:47:45.949Z,16.33
2019-05-01T15:50:14.858Z,15.90
2019-05-01T15:52:43.731Z,15.63
2019-05-01T15:55:13.995Z,16.67
2019-05-01T15:57:42.764Z,17.83
2019-05-01T16:00:14.083Z,16.80
2019-05-01T16:02:44.100Z,19.20
2019-05-01T16:05:15.876Z,18.47
2019-05-01T16:07:44.971Z,22.70
2019-05-01T16:10:16.656Z,23.30
2019-05-01T16:12:56.190Z,19.50
2019-05-01T16:15:28.336Z,19.83
2019-05-01T16:17:57.454Z,19.23
2019-05-01T16:20:26.216Z,20.40
2019-05-01T16:22:55.022Z,17.93
2019-05-01T16:25:24.827Z,18.57
2019-05-01T16:27:53.704Z,19.43
2019-05-01T16:30:25.028Z,19.57
2019-05-01T16:32:53.994Z,18.53
2019-05-01T16:35:22.892Z,20.47
2019-05-01T16:37:51.631Z,19.87
2019-05-01T16:40:47.519Z,20.10
2019-05-01T16:43:16.257Z,19.80
2019-05-01T16:45:45.139Z,19.27
2019-05-01T16:48:13.997Z,20.53
2019-05-01T16:50:42.740Z,21.80
2019-05-01T16:53:11.582Z,21.20
2019-05-01T16:55:40.827Z,22.37
2019-05-01T16:58:13.057Z,21.53
2019-05-01T17:00:58.021Z,21.20
2019-05-01T17:03:35.171Z,21.10
2019-05-01T17:06:15.014Z,20.53
2019-05-01T17:09:08.595Z,21.73
2019-05-01T17:11:37.928Z,22.67
2019-05-01T17:14:08.292Z,22.73
2019-05-01T17:16:37.109Z,21.60
2019-05-01T17:19:05.996Z,23.17
2019-05-01T17:21:35.038Z,21.40
2019-05-01T17:24:04.126Z,21.87
2019-05-01T17:26:33.026Z,21.47
2019-05-01T17:29:02.099Z,22.27
2019-05-01T17:31:31.157Z,21.83
2019-05-01T17:34:00.061Z,21.13
2019-05-01T17:36:28.976Z,21.13
2019-05-01T17:38:57.854Z,21.40
2019-05-01T17:41:27.269Z,21.70
2019-05-01T17:43:57.212Z,22.00
2019-05-01T17:46:26.014Z,20.80
2019-05-01T17:48:54.770Z,22.90
2019-05-01T17:51:23.727Z,22.10
2019-05-01T17:53:52.482Z,21.00
2019-05-01T17:56:27.542Z,22.27
2019-05-01T17:58:51.789Z,22.03
2019-05-01T18:01:37.688Z,21.13
2019-05-01T18:04:14.771Z,22.40
2019-05-01T18:06:46.659Z,21.37
2019-05-01T18:09:17.149Z,21.90
2019-05-01T18:11:47.461Z,22.43
2019-05-01T18:14:16.700Z,21.93
2019-05-01T18:16:45.504Z,22.40
2019-05-01T18:19:14.518Z,21.93
2019-05-01T18:21:46.650Z,22.07
2019-05-01T18:24:33.776Z,22.27
2019-05-01T18:27:21.045Z,23.03
2019-05-01T18:29:52.307Z,23.53
2019-05-01T18:32:46.459Z,22.63
2019-05-01T18:35:15.891Z,23.27
2019-05-01T18:37:50.324Z,22.43
2019-05-01T18:40:23.694Z,24.70
2019-05-01T18:42:52.508Z,23.83
2019-05-01T18:45:46.010Z,24.27
2019-05-01T18:48:14.924Z,25.33
2019-05-01T18:50:43.817Z,23.70
2019-05-01T18:53:12.701Z,24.57
2019-05-01T18:55:41.425Z,25.73
2019-05-01T18:58:10.228Z,26.00
2019-05-01T19:00:39.040Z,25.33
2019-05-01T19:03:08.033Z,25.17
2019-05-01T19:05:36.978Z,25.07
2019-05-01T19:08:06.383Z,25.83
2019-05-01T19:10:35.130Z,25.90
2019-05-01T19:13:04.044Z,27.63
2019-05-01T19:15:33.041Z,26.50
2019-05-01T19:18:01.775Z,26.67
2019-05-01T19:20:30.679Z,27.50
2019-05-01T19:22:59.504Z,25.33
2019-05-01T19:25:28.353Z,26.80
2019-05-01T19:27:57.080Z,26.90
2019-05-01T19:30:25.970Z,26.33
2019-05-01T19:32:54.852Z,27.17
2019-05-01T19:35:28.974Z,27.07
2019-05-01T19:37:57.454Z,24.93
2019-05-01T19:40:29.738Z,26.37
2019-05-01T19:42:57.976Z,24.63
2019-05-01T19:45:26.293Z,24.77
2019-05-01T19:47:55.041Z,23.03
2019-05-01T19:50:24.034Z,22.03
2019-05-01T19:52:52.879Z,24.03
2019-05-01T19:55:21.780Z,26.10
2019-05-01T19:57:50.498Z,24.20
2019-05-01T20:00:40.000Z,25.63
2019-05-01T20:03:08.799Z,23.73
2019-05-01T20:05:37.572Z,24.17
2019-05-01T20:08:06.630Z,24.67
2019-05-01T20:10:35.484Z,24.03
2019-05-01T20:13:07.026Z,24.30
2019-05-01T20:15:38.896Z,28.13
2019-05-01T20:18:11.249Z,25.60
2019-05-01T20:20:40.152Z,24.87
2019-05-01T20:23:09.221Z,28.33
2019-05-01T20:25:40.119Z,26.77
2019-05-01T20:28:08.877Z,28.17
2019-05-01T20:30:37.651Z,28.07
2019-05-01T20:33:08.351Z,25.63
2019-05-01T20:35:37.405Z,26.60
2019-05-01T20:38:06.333Z,27.17
2019-05-01T20:40:35.218Z,27.30
2019-05-01T20:43:05.931Z,27.10
2019-05-01T20:45:35.460Z,26.70
2019-05-01T20:48:04.347Z,26.33
2019-05-01T20:50:33.108Z,26.27
2019-05-01T20:53:01.829Z,28.43
2019-05-01T20:55:30.672Z,27.83
2019-05-01T20:58:17.139Z,26.27
2019-05-01T21:00:48.247Z,28.20
2019-05-01T21:03:18.376Z,28.80
2019-05-01T21:06:07.835Z,26.57
2019-05-01T21:08:47.910Z,27.37
2019-05-01T21:11:21.437Z,28.90
2019-05-01T21:13:50.351Z,28.77
2019-05-01T21:16:19.493Z,29.80
2019-05-01T21:18:48.399Z,29.83
2019-05-01T21:21:17.161Z,29.33
2019-05-01T21:23:48.103Z,29.00
2019-05-01T21:26:16.458Z,29.87
2019-05-01T21:28:45.421Z,29.70
2019-05-01T21:31:14.164Z,29.50
2019-05-01T21:33:48.978Z,29.80
2019-05-01T21:36:13.380Z,29.70
2019-05-01T21:38:42.206Z,29.97
2019-05-01T21:41:10.977Z,30.87
2019-05-01T21:43:39.984Z,29.43
2019-05-01T21:46:08.812Z,29.43
2019-05-01T21:48:37.643Z,31.73
2019-05-01T21:51:07.451Z,31.27
2019-05-01T21:53:37.337Z,31.03
2019-05-01T21:56:07.602Z,29.27
2019-05-01T21:58:36.591Z,30.67
2019-05-01T22:01:06.784Z,29.60
2019-05-01T22:03:35.647Z,30.17
2019-05-01T22:06:04.820Z,30.80
2019-05-01T22:08:34.494Z,30.37
2019-05-01T22:11:04.327Z,30.13
2019-05-01T22:13:33.082Z,30.13
2019-05-01T22:16:08.495Z,29.73
2019-05-01T22:18:52.279Z,29.93
2019-05-01T22:21:26.940Z,30.53
2019-05-01T22:24:29.866Z,30.17
2019-05-01T22:27:03.430Z,29.90
2019-05-01T22:29:34.602Z,30.67
2019-05-01T22:32:11.019Z,29.97
2019-05-01T22:34:46.779Z,30.13
2019-05-01T22:37:15.634Z,32.20
2019-05-01T22:39:46.743Z,30.90
2019-05-01T22:42:15.570Z,29.83
2019-05-01T22:44:44.291Z,29.53
2019-05-01T22:47:15.096Z,30.67
2019-05-01T22:49:43.720Z,30.27
2019-05-01T22:52:12.461Z,29.17
2019-05-01T22:54:44.994Z,30.33
2019-05-01T22:57:11.630Z,32.43
2019-05-01T22:59:40.375Z,30.33
2019-05-01T23:02:16.120Z,31.07
2019-05-01T23:04:48.264Z,30.30
2019-05-01T23:07:16.870Z,31.27
2019-05-01T23:09:46.087Z,29.27
2019-05-01T23:12:14.903Z,30.37
2019-05-01T23:14:44.831Z,32.00
2019-05-01T23:17:39.509Z,29.20
2019-05-01T23:20:10.396Z,30.50
2019-05-01T23:22:39.227Z,30.30
2019-05-01T23:25:08.124Z,30.37
2019-05-01T23:27:36.951Z,31.63
2019-05-01T23:30:07.284Z,29.93
2019-05-01T23:32:36.030Z,29.63
2019-05-01T23:35:05.403Z,29.17
2019-05-01T23:37:34.402Z,28.37
2019-05-01T23:40:03.512Z,29.00
2019-05-01T23:42:32.270Z,30.43
2019-05-01T23:45:01.032Z,30.60
2019-05-01T23:47:29.775Z,31.67
2019-05-01T23:49:58.508Z,29.97
2019-05-01T23:52:27.262Z,31.20
2019-05-01T23:54:56.047Z,30.87
2019-05-01T23:57:24.804Z,29.57
2019-05-01T23:59:53.692Z,28.50
